createdAt,value
2022-09-27T00:00:45.289Z,11.65
2022-09-27T00:03:56.174Z,10.95
2022-09-27T00:07:04.732Z,11.40
2022-09-27T00:10:27.512Z,12.68
2022-09-27T00:13:38.085Z,13.00
2022-09-27T00:16:44.352Z,12.43
2022-09-27T00:19:48.143Z,17.75
2022-09-27T00:22:51.948Z,13.80
2022-09-27T00:26:01.082Z,15.02
2022-09-27T00:29:07.412Z,11.48
2022-09-27T00:32:11.303Z,12.40
2022-09-27T00:35:34.760Z,18.17
2022-09-27T00:38:41.343Z,13.15
2022-09-27T00:41:50.068Z,12.50
2022-09-27T00:45:17.931Z,12.00
2022-09-27T00:48:27.690Z,12.85
2022-09-27T00:51:34.076Z,12.30
2022-09-27T00:54:42.664Z,11.15
2022-09-27T00:58:06.284Z,14.40
2022-09-27T01:01:12.283Z,13.02
2022-09-27T01:04:22.937Z,12.70
2022-09-27T01:07:28.850Z,12.68
2022-09-27T01:10:38.890Z,12.77
2022-09-27T01:14:12.688Z,14.23
2022-09-27T01:17:38.547Z,10.38
2022-09-27T01:20:56.196Z,12.15
2022-09-27T01:24:26.409Z,11.82
2022-09-27T01:28:04.793Z,12.27
2022-09-27T01:34:44.987Z,11.95
2022-09-27T01:38:19.910Z,11.68
2022-09-27T01:42:31.640Z,10.23
2022-09-27T01:46:01.581Z,10.90
2022-09-27T01:49:18.907Z,14.73
2022-09-27T01:52:29.867Z,14.75
2022-09-27T01:55:38.104Z,12.73
2022-09-27T01:58:50.882Z,11.75
2022-09-27T02:01:57.652Z,10.60
2022-09-27T02:05:08.259Z,13.48
2022-09-27T02:08:45.105Z,14.73
2022-09-27T02:12:08.081Z,12.45
2022-09-27T02:15:15.246Z,10.25
2022-09-27T02:18:34.985Z,10.23
2022-09-27T02:22:23.653Z,13.02
2022-09-27T02:26:01.077Z,10.65
2022-09-27T02:29:42.079Z,10.32
2022-09-27T02:32:47.822Z,11.50
2022-09-27T02:35:56.424Z,14.55
2022-09-27T02:39:22.218Z,13.02
2022-09-27T02:42:35.110Z,11.70
2022-09-27T02:45:53.013Z,13.30
2022-09-27T02:49:25.173Z,13.05
2022-09-27T02:52:51.285Z,12.27
2022-09-27T02:56:00.755Z,13.32
2022-09-27T02:59:16.299Z,11.77
2022-09-27T03:02:33.772Z,10.90
2022-09-27T03:05:53.787Z,12.65
2022-09-27T03:08:58.053Z,15.75
2022-09-27T03:12:04.176Z,11.88
2022-09-27T03:15:11.464Z,12.10
2022-09-27T03:18:20.937Z,12.45
2022-09-27T03:21:54.017Z,11.57
2022-09-27T03:25:17.536Z,13.48
2022-09-27T03:28:41.050Z,14.52
2022-09-27T03:32:05.350Z,14.50
2022-09-27T03:35:15.610Z,14.13
2022-09-27T03:38:20.213Z,12.05
2022-09-27T03:41:47.251Z,13.57
2022-09-27T03:45:11.449Z,15.45
2022-09-27T03:51:41.449Z,12.65
2022-09-27T03:54:48.129Z,13.32
2022-09-27T03:58:13.448Z,17.62
2022-09-27T04:01:57.869Z,10.68
2022-09-27T04:05:27.786Z,10.45
2022-09-27T04:08:35.324Z,12.63
2022-09-27T04:11:41.304Z,13.07
2022-09-27T04:14:44.803Z,11.88
2022-09-27T04:18:09.212Z,18.55
2022-09-27T04:21:36.300Z,22.85
2022-09-27T04:25:02.137Z,15.20
2022-09-27T04:28:25.992Z,11.70
2022-09-27T04:31:51.931Z,19.45
2022-09-27T04:35:37.893Z,9.23
2022-09-27T04:38:43.456Z,16.33
2022-09-27T04:41:46.997Z,14.25
2022-09-27T04:44:56.693Z,11.88
2022-09-27T04:48:41.613Z,13.98
2022-09-27T04:51:49.631Z,13.13
2022-09-27T04:54:53.211Z,16.50
2022-09-27T04:58:17.757Z,13.07
2022-09-27T05:01:20.660Z,13.88
2022-09-27T05:04:52.411Z,8.82
2022-09-27T05:07:55.996Z,8.77
2022-09-27T05:11:20.106Z,12.55
2022-09-27T05:14:36.357Z,10.63
2022-09-27T05:17:41.271Z,9.82
2022-09-27T05:20:59.157Z,10.25
2022-09-27T05:27:28.556Z,10.77
2022-09-27T05:30:35.682Z,14.93
2022-09-27T05:33:44.496Z,17.98
2022-09-27T05:36:50.304Z,10.23
2022-09-27T05:40:39.775Z,11.88
2022-09-27T05:44:03.082Z,10.48
2022-09-27T05:47:32.996Z,8.80
2022-09-27T05:50:35.843Z,13.23
2022-09-27T05:53:42.053Z,10.02
2022-09-27T05:59:52.413Z,10.15
2022-09-27T06:03:08.062Z,10.32
2022-09-27T06:06:15.964Z,9.77
2022-09-27T06:10:17.233Z,10.52
2022-09-27T06:13:43.940Z,9.45
2022-09-27T06:17:11.194Z,11.17
2022-09-27T06:20:22.793Z,12.90
2022-09-27T06:23:32.815Z,12.55
2022-09-27T06:27:34.160Z,12.27
2022-09-27T06:31:02.031Z,12.77
2022-09-27T06:35:06.455Z,10.35
2022-09-27T06:38:31.694Z,13.85
2022-09-27T06:41:57.937Z,19.33
2022-09-27T06:45:18.970Z,13.35
2022-09-27T06:49:08.152Z,14.52
2022-09-27T06:52:46.944Z,10.52
2022-09-27T06:55:55.336Z,12.05
2022-09-27T06:59:17.342Z,12.32
2022-09-27T07:02:28.037Z,9.52
2022-09-27T07:05:31.785Z,12.63
2022-09-27T07:08:39.034Z,12.63
2022-09-27T07:11:44.940Z,13.23
2022-09-27T07:14:50.429Z,12.73
2022-09-27T07:17:59.490Z,12.90
2022-09-27T07:21:03.294Z,14.02
2022-09-27T07:24:07.973Z,13.80
2022-09-27T07:27:11.017Z,13.40
2022-09-27T07:30:14.985Z,11.98
2022-09-27T07:33:19.384Z,12.60
2022-09-27T07:36:25.038Z,13.75
2022-09-27T07:39:30.122Z,13.65
2022-09-27T07:42:33.434Z,13.43
2022-09-27T07:45:37.135Z,15.27
2022-09-27T07:48:41.518Z,13.07
2022-09-27T07:51:45.131Z,12.48
2022-09-27T07:54:51.162Z,11.48
2022-09-27T07:58:06.279Z,13.68
2022-09-27T08:01:46.491Z,14.68
2022-09-27T08:04:59.884Z,11.45
2022-09-27T08:08:22.525Z,9.55
2022-09-27T08:11:27.134Z,10.15
2022-09-27T08:14:31.635Z,12.05
2022-09-27T08:17:34.499Z,10.60
2022-09-27T08:20:41.838Z,11.93
2022-09-27T08:23:49.802Z,11.25
2022-09-27T08:26:52.586Z,11.85
2022-09-27T08:29:55.443Z,15.13
2022-09-27T08:33:05.551Z,11.00
2022-09-27T08:36:15.212Z,12.05
2022-09-27T08:39:37.949Z,12.52
2022-09-27T08:42:59.011Z,13.52
2022-09-27T08:46:31.475Z,11.95
2022-09-27T08:50:04.592Z,16.52
2022-09-27T08:53:44.899Z,16.25
2022-09-27T08:56:51.724Z,13.45
2022-09-27T09:00:14.695Z,12.15
2022-09-27T09:03:30.140Z,12.75
2022-09-27T09:06:36.427Z,12.73
2022-09-27T09:09:58.775Z,13.68
2022-09-27T09:13:25.892Z,15.85
2022-09-27T09:16:35.917Z,12.48
2022-09-27T09:19:50.942Z,14.45
2022-09-27T09:23:03.576Z,14.68
2022-09-27T09:26:41.943Z,12.48
2022-09-27T09:30:25.761Z,13.73
2022-09-27T09:33:37.192Z,13.40
2022-09-27T09:37:00.337Z,12.68
2022-09-27T09:40:28.530Z,12.82
2022-09-27T09:44:14.831Z,14.73
2022-09-27T09:47:29.788Z,14.30
2022-09-27T09:50:50.751Z,12.77
2022-09-27T09:53:59.938Z,12.95
2022-09-27T09:57:33.442Z,12.45
2022-09-27T10:01:13.497Z,10.65
2022-09-27T10:04:37.371Z,10.88
2022-09-27T10:07:47.398Z,11.57
2022-09-27T10:10:50.913Z,8.65
2022-09-27T10:13:56.541Z,9.63
2022-09-27T10:17:06.516Z,9.32
2022-09-27T10:20:24.745Z,9.10
2022-09-27T10:23:32.998Z,9.45
2022-09-27T10:26:52.972Z,9.35
2022-09-27T10:30:35.727Z,7.57
2022-09-27T10:34:07.484Z,8.23
2022-09-27T10:37:25.989Z,9.32
2022-09-27T10:40:36.720Z,9.15
2022-09-27T10:43:40.439Z,8.77
2022-09-27T10:47:16.567Z,10.48
2022-09-27T10:50:48.933Z,10.77
2022-09-27T10:53:51.114Z,11.43
2022-09-27T10:56:58.830Z,14.18
2022-09-27T11:00:23.015Z,15.55
2022-09-27T11:03:32.901Z,9.82
2022-09-27T11:06:38.455Z,10.90
2022-09-27T11:09:51.268Z,10.60
2022-09-27T11:13:20.267Z,10.93
2022-09-27T11:16:38.740Z,7.95
2022-09-27T11:20:08.940Z,11.63
2022-09-27T11:23:54.164Z,11.02
2022-09-27T11:27:45.305Z,9.40
2022-09-27T11:31:25.083Z,10.85
2022-09-27T11:34:54.376Z,11.07
2022-09-27T11:38:29.535Z,7.82
2022-09-27T11:41:52.235Z,8.25
2022-09-27T11:45:50.590Z,9.10
2022-09-27T11:49:10.083Z,10.43
2022-09-27T11:52:38.466Z,8.63
2022-09-27T11:56:30.959Z,8.60
2022-09-27T11:59:49.432Z,11.23
2022-09-27T12:03:12.674Z,9.65
2022-09-27T12:06:50.426Z,8.48
2022-09-27T12:10:01.067Z,9.18
2022-09-27T12:13:09.506Z,11.57
2022-09-27T12:16:19.840Z,14.00
2022-09-27T12:19:30.896Z,10.35
2022-09-27T12:22:58.564Z,9.50
2022-09-27T12:26:17.306Z,10.43
2022-09-27T12:29:30.999Z,8.43
2022-09-27T12:33:16.895Z,4.80
2022-09-27T12:36:27.579Z,5.72
2022-09-27T12:39:39.280Z,5.95
2022-09-27T12:43:05.581Z,6.32
2022-09-27T12:46:15.973Z,5.45
2022-09-27T12:49:29.319Z,5.00
2022-09-27T12:52:39.038Z,4.87
2022-09-27T12:56:06.962Z,5.97
2022-09-27T12:59:24.888Z,3.65
2022-09-27T13:03:04.016Z,3.80
2022-09-27T13:06:55.799Z,5.15
2022-09-27T13:10:25.032Z,4.35
2022-09-27T13:13:35.622Z,4.70
2022-09-27T13:16:53.982Z,4.95
2022-09-27T13:20:36.845Z,4.72
2022-09-27T13:24:03.964Z,3.85
2022-09-27T13:27:25.238Z,4.87
2022-09-27T13:30:29.466Z,5.50
2022-09-27T13:33:49.492Z,5.80
2022-09-27T13:36:56.200Z,6.65
2022-09-27T13:40:24.547Z,6.65
2022-09-27T13:43:44.014Z,4.68
2022-09-27T13:47:13.596Z,5.32
2022-09-27T13:50:56.780Z,6.07
2022-09-27T13:54:10.126Z,5.10
2022-09-27T13:57:38.744Z,6.40
2022-09-27T14:01:19.054Z,8.25
2022-09-27T14:04:22.478Z,9.77
2022-09-27T14:07:31.596Z,15.10
2022-09-27T14:10:43.291Z,16.98
2022-09-27T14:13:47.622Z,13.90
2022-09-27T14:16:54.399Z,8.95
2022-09-27T14:20:45.956Z,1.92
2022-09-27T14:23:51.524Z,1.70
2022-09-27T14:31:30.338Z,1.17
2022-09-27T14:34:36.526Z,1.15
2022-09-27T14:37:41.757Z,1.20
2022-09-27T14:41:10.875Z,2.45
2022-09-27T14:44:19.266Z,1.80
2022-09-27T14:47:27.757Z,0.90
2022-09-27T14:50:31.020Z,1.40
2022-09-27T14:53:42.991Z,1.40
2022-09-27T14:56:52.874Z,1.52
2022-09-27T14:59:58.174Z,4.75
2022-09-27T15:03:34.539Z,0.70
2022-09-27T15:06:46.195Z,0.62
2022-09-27T15:09:51.613Z,1.50
2022-09-27T15:13:22.371Z,1.00
2022-09-27T15:16:48.664Z,0.80
2022-09-27T15:20:23.469Z,0.70
2022-09-27T15:23:46.551Z,1.92
2022-09-27T15:26:52.183Z,0.55
2022-09-27T15:29:58.020Z,0.90
2022-09-27T15:33:07.608Z,0.62
2022-09-27T15:36:15.431Z,0.77
2022-09-27T15:39:41.963Z,0.20
2022-09-27T15:43:02.847Z,1.10
2022-09-27T15:46:40.624Z,0.20
2022-09-27T15:50:19.043Z,1.10
2022-09-27T15:53:37.360Z,0.62
2022-09-27T15:56:41.882Z,0.70
2022-09-27T15:59:55.407Z,1.87
2022-09-27T16:03:00.251Z,0.88
2022-09-27T16:06:27.227Z,0.37
2022-09-27T16:09:58.821Z,0.90
2022-09-27T16:13:30.342Z,0.50
2022-09-27T16:17:02.124Z,0.47
2022-09-27T16:20:25.260Z,1.52
2022-09-27T16:23:47.930Z,0.68
2022-09-27T16:26:59.080Z,2.45
2022-09-27T16:30:06.345Z,4.87
2022-09-27T16:33:12.856Z,2.55
2022-09-27T16:36:19.501Z,2.75
2022-09-27T16:42:38.361Z,2.33
2022-09-27T16:45:43.626Z,2.17
2022-09-27T16:48:48.818Z,0.60
2022-09-27T16:52:01.422Z,5.87
2022-09-27T16:55:04.508Z,3.95
2022-09-27T16:58:10.450Z,2.72
2022-09-27T17:01:17.063Z,1.30
2022-09-27T17:04:20.981Z,1.67
2022-09-27T17:07:28.374Z,1.52
2022-09-27T17:10:32.265Z,2.42
2022-09-27T17:13:36.557Z,1.55
2022-09-27T17:16:41.828Z,1.67
2022-09-27T17:19:45.038Z,0.90
2022-09-27T17:22:47.842Z,1.05
2022-09-27T17:25:50.766Z,1.62
2022-09-27T17:28:57.696Z,1.48
2022-09-27T17:32:00.829Z,2.55
2022-09-27T17:35:05.469Z,2.33
2022-09-27T17:38:10.349Z,1.67
2022-09-27T17:41:18.073Z,1.85
2022-09-27T17:44:23.862Z,2.05
2022-09-27T17:47:46.360Z,2.67
2022-09-27T17:50:54.191Z,1.10
2022-09-27T17:54:25.776Z,1.75
2022-09-27T17:57:31.966Z,3.05
2022-09-27T18:00:36.943Z,4.55
2022-09-27T18:03:40.293Z,6.50
2022-09-27T18:06:46.647Z,2.10
2022-09-27T18:09:53.720Z,1.92
2022-09-27T18:12:57.067Z,2.00
2022-09-27T18:16:02.194Z,1.58
2022-09-27T18:19:07.638Z,2.17
2022-09-27T18:22:10.349Z,3.80
2022-09-27T18:25:13.285Z,1.95
2022-09-27T18:28:18.623Z,2.72
2022-09-27T18:31:23.615Z,2.50
2022-09-27T18:38:26.979Z,4.50
2022-09-27T18:41:36.428Z,2.95
2022-09-27T18:44:42.639Z,3.37
2022-09-27T18:47:49.307Z,3.30
2022-09-27T18:50:52.123Z,2.55
2022-09-27T18:53:56.710Z,3.15
2022-09-27T18:57:01.812Z,2.75
2022-09-27T19:00:09.132Z,5.20
2022-09-27T19:03:31.572Z,5.15
2022-09-27T19:06:56.885Z,6.05
2022-09-27T19:10:19.609Z,5.28
2022-09-27T19:13:29.669Z,8.52
2022-09-27T19:16:34.107Z,5.80
2022-09-27T19:19:37.775Z,5.35
2022-09-27T19:22:40.276Z,21.48
2022-09-27T19:25:44.055Z,5.22
2022-09-27T19:28:49.791Z,2.80
2022-09-27T19:31:54.452Z,2.75
2022-09-27T19:35:00.831Z,2.70
2022-09-27T19:38:25.160Z,2.57
2022-09-27T19:41:31.310Z,2.33
2022-09-27T19:44:34.511Z,3.22
2022-09-27T19:47:39.180Z,3.08
2022-09-27T19:50:42.546Z,2.75
2022-09-27T19:53:46.047Z,2.08
2022-09-27T19:56:54.415Z,2.95
2022-09-27T20:00:20.363Z,3.87
2022-09-27T20:03:26.606Z,3.50
2022-09-27T20:06:47.792Z,4.15
2022-09-27T20:09:52.382Z,3.87
2022-09-27T20:12:55.244Z,4.70
2022-09-27T20:16:04.368Z,3.12
2022-09-27T20:19:09.326Z,2.67
2022-09-27T20:22:16.947Z,3.35
2022-09-27T20:25:21.340Z,5.55
2022-09-27T20:28:24.368Z,2.00
2022-09-27T20:32:09.405Z,6.28
2022-09-27T20:35:14.044Z,2.90
2022-09-27T20:38:20.176Z,2.37
2022-09-27T20:41:26.413Z,1.80
2022-09-27T20:44:31.936Z,2.17
2022-09-27T20:48:01.002Z,2.47
2022-09-27T20:51:06.964Z,2.55
2022-09-27T20:57:55.954Z,1.95
2022-09-27T21:01:05.872Z,1.00
2022-09-27T21:04:32.445Z,1.00
2022-09-27T21:07:37.369Z,0.95
2022-09-27T21:10:43.948Z,1.73
2022-09-27T21:14:04.657Z,2.17
2022-09-27T21:17:10.289Z,2.72
2022-09-27T21:20:13.370Z,1.98
2022-09-27T21:23:23.664Z,1.02
2022-09-27T21:26:47.920Z,1.33
2022-09-27T21:29:50.687Z,0.85
2022-09-27T21:32:55.145Z,1.40
2022-09-27T21:36:17.879Z,1.20
2022-09-27T21:39:27.763Z,1.10
2022-09-27T21:42:30.748Z,1.00
2022-09-27T21:45:36.778Z,0.95
2022-09-27T21:48:46.894Z,1.40
2022-09-27T21:51:52.606Z,1.27
2022-09-27T21:54:55.475Z,1.52
2022-09-27T22:01:31.788Z,0.62
2022-09-27T22:04:36.950Z,0.88
2022-09-27T22:07:40.495Z,1.00
2022-09-27T22:11:01.690Z,0.40
2022-09-27T22:14:09.527Z,0.57
2022-09-27T22:17:12.706Z,0.50
2022-09-27T22:20:16.951Z,1.40
2022-09-27T22:23:19.908Z,0.55
2022-09-27T22:26:27.753Z,0.98
2022-09-27T22:29:33.210Z,0.32
2022-09-27T22:32:37.793Z,0.40
2022-09-27T22:35:51.426Z,0.55
2022-09-27T22:38:55.648Z,5.78
2022-09-27T22:41:59.785Z,1.23
2022-09-27T22:45:03.444Z,1.67
2022-09-27T22:48:09.053Z,1.50
2022-09-27T22:51:12.072Z,0.40
2022-09-27T22:54:19.643Z,0.30
2022-09-27T22:57:22.463Z,0.88
2022-09-27T23:00:26.597Z,1.65
2022-09-27T23:03:53.567Z,0.50
2022-09-27T23:06:56.908Z,0.52
2022-09-27T23:10:02.031Z,0.52
2022-09-27T23:13:11.434Z,0.50
2022-09-27T23:16:21.486Z,0.40
2022-09-27T23:19:27.537Z,0.65
2022-09-27T23:22:35.165Z,0.30
2022-09-27T23:25:43.175Z,0.40
2022-09-27T23:28:52.539Z,0.30
2022-09-27T23:31:55.988Z,0.50
2022-09-27T23:35:01.169Z,0.55
2022-09-27T23:38:26.824Z,0.32
2022-09-27T23:41:32.317Z,1.35
2022-09-27T23:44:38.178Z,1.57
2022-09-27T23:47:44.627Z,0.60
2022-09-27T23:50:49.392Z,0.32
2022-09-27T23:53:55.184Z,0.70
2022-09-27T23:56:58.892Z,0.30
